Informes METAR cercanos

 

LEBZ - Talavera Ab/Bada, Spain
Distancia desde la estación: ONO 43km
Actualización: 23/07/2021 22:00
NO Actualizado
Despejado(0/8)
Despejado(0/8)
 Viento del O
Viento: O 17 km/h
Temperatura: 25°C
Rocío: 11°C
Humedad: 42%
Barómetro: 1013 hPa
Resumen: Despejado , 0/8
Visibilidad: Superior a 10 km
2021/07/23 20:00 LEBZ 232000Z 28009KT CAVOK 25/11 Q1013